Terminal Aerodrome Forecast
Issued by NWS Jacksonville, FL

Home | Current Version | Previous Version | Text Only | Print | Product List | Glossary On
Versions: 1 2 3 4 5 6 7 8 9 10 11 12
155
FTUS42 KJAX 292320
TAFSSI
TAF
KSSI 292320Z 3000/3024 15010KT P6SM SKC
     FM300300 23006KT P6SM SKC
     FM301200 29005KT P6SM FEW030=

USA.gov is the U.S. government's official web portal to all federal, state and local government web resources and services.